createdAt,value
2019-03-25T00:01:02.293Z,85.70
2019-03-25T00:03:36.083Z,85.10
2019-03-25T00:06:09.825Z,84.30
2019-03-25T00:08:43.574Z,83.80
2019-03-25T00:11:17.489Z,84.10
2019-03-25T00:13:51.354Z,84.00
2019-03-25T00:16:25.010Z,83.80
2019-03-25T00:18:58.904Z,83.80
2019-03-25T00:21:32.568Z,84.10
2019-03-25T00:24:06.610Z,85.60
2019-03-25T00:26:40.104Z,85.30
2019-03-25T00:29:13.951Z,86.60
2019-03-25T00:31:47.536Z,87.80
2019-03-25T00:34:21.133Z,87.00
2019-03-25T00:36:55.138Z,86.80
2019-03-25T00:39:29.076Z,86.80
2019-03-25T00:42:02.745Z,87.40
2019-03-25T00:44:36.301Z,88.10
2019-03-25T00:47:10.310Z,88.10
2019-03-25T00:49:44.163Z,88.40
2019-03-25T00:52:18.083Z,88.50
2019-03-25T00:54:51.632Z,89.20
2019-03-25T00:57:25.420Z,88.50
2019-03-25T00:59:59.454Z,87.90
2019-03-25T01:02:34.238Z,87.90
2019-03-25T01:05:08.799Z,88.60
2019-03-25T01:07:42.735Z,88.50
2019-03-25T01:10:16.796Z,88.20
2019-03-25T01:13:10.747Z,88.70
2019-03-25T01:15:44.438Z,88.50
2019-03-25T01:18:18.096Z,88.90
2019-03-25T01:20:51.645Z,88.50
2019-03-25T01:23:25.658Z,87.60
2019-03-25T01:25:59.527Z,87.90
2019-03-25T01:28:33.152Z,88.30
2019-03-25T01:31:07.009Z,89.10
2019-03-25T01:33:41.324Z,89.00
2019-03-25T01:36:15.244Z,88.30
2019-03-25T01:38:49.030Z,89.00
2019-03-25T01:41:22.790Z,88.00
2019-03-25T01:43:58.152Z,87.70
2019-03-25T01:46:34.051Z,89.60
2019-03-25T01:49:07.997Z,89.90
2019-03-25T01:51:41.705Z,90.20
2019-03-25T01:54:15.235Z,90.20
2019-03-25T01:56:49.270Z,90.50
2019-03-25T01:59:23.284Z,90.40
2019-03-25T02:01:57.011Z,90.20
2019-03-25T02:04:30.586Z,90.70
2019-03-25T02:07:04.414Z,90.60
2019-03-25T02:09:37.943Z,90.30
2019-03-25T02:12:11.779Z,90.20
2019-03-25T02:14:45.799Z,90.10
2019-03-25T02:17:19.738Z,90.40
2019-03-25T02:19:53.358Z,90.70
2019-03-25T02:22:27.530Z,90.20
2019-03-25T02:25:03.069Z,90.10
2019-03-25T02:27:36.986Z,90.00
2019-03-25T02:30:11.415Z,90.40
2019-03-25T02:32:45.247Z,91.00
2019-03-25T02:35:19.123Z,91.40
2019-03-25T02:37:53.034Z,91.90
2019-03-25T02:40:26.785Z,91.80
2019-03-25T02:43:02.210Z,92.20
2019-03-25T02:45:36.130Z,91.90
2019-03-25T02:48:09.751Z,91.60
2019-03-25T02:50:43.547Z,91.20
2019-03-25T02:53:17.351Z,90.90
2019-03-25T02:55:52.600Z,90.70
2019-03-25T02:58:28.555Z,91.60
2019-03-25T03:01:02.642Z,91.90
2019-03-25T03:03:36.380Z,91.80
2019-03-25T03:06:10.360Z,92.00
2019-03-25T03:08:47.369Z,91.80
2019-03-25T03:11:19.963Z,91.30
2019-03-25T03:13:53.569Z,90.90
2019-03-25T03:16:28.229Z,91.00
2019-03-25T03:19:01.914Z,91.10
2019-03-25T03:21:35.586Z,91.50
2019-03-25T03:24:09.700Z,91.60
2019-03-25T03:26:43.455Z,91.90
2019-03-25T03:29:17.111Z,91.90
2019-03-25T03:31:51.015Z,91.70
2019-03-25T03:34:24.678Z,91.70
2019-03-25T03:36:58.800Z,91.50
2019-03-25T03:39:32.553Z,92.10
2019-03-25T03:42:06.401Z,91.90
2019-03-25T03:44:40.527Z,91.90
2019-03-25T03:47:14.316Z,91.80
2019-03-25T03:49:48.420Z,91.50
2019-03-25T03:52:23.778Z,91.50
2019-03-25T03:54:57.826Z,91.70
2019-03-25T03:57:32.611Z,92.00
2019-03-25T04:00:06.825Z,91.40
2019-03-25T04:02:40.888Z,91.00
2019-03-25T04:05:15.824Z,91.20
2019-03-25T04:07:49.383Z,91.20
2019-03-25T04:10:22.968Z,91.20
2019-03-25T04:12:57.038Z,91.30
2019-03-25T04:15:33.112Z,91.50
2019-03-25T04:18:06.878Z,91.40
2019-03-25T04:20:40.935Z,91.70
2019-03-25T04:23:14.907Z,91.70
2019-03-25T04:25:49.006Z,92.10
2019-03-25T04:28:22.956Z,91.80
2019-03-25T04:30:56.848Z,91.70
2019-03-25T04:33:30.602Z,91.90
2019-03-25T04:36:05.933Z,92.00
2019-03-25T04:38:39.634Z,92.00
2019-03-25T04:41:13.593Z,92.30
2019-03-25T04:43:47.496Z,91.70
2019-03-25T04:46:21.704Z,92.10
2019-03-25T04:48:55.761Z,91.70
2019-03-25T04:51:35.776Z,91.90
2019-03-25T04:54:09.975Z,91.80
2019-03-25T04:56:43.684Z,91.80
2019-03-25T04:59:17.823Z,91.70
2019-03-25T05:01:53.066Z,91.60
2019-03-25T05:04:26.955Z,91.40
2019-03-25T05:07:01.181Z,91.20
2019-03-25T05:09:41.118Z,91.70
2019-03-25T05:12:21.475Z,91.60
2019-03-25T05:15:01.560Z,91.60
2019-03-25T05:17:39.751Z,91.80
2019-03-25T05:20:19.353Z,91.40
2019-03-25T05:22:57.624Z,91.30
2019-03-25T05:25:45.219Z,91.00
2019-03-25T05:28:25.270Z,90.50
2019-03-25T05:31:01.016Z,90.20
2019-03-25T05:33:39.127Z,90.20
2019-03-25T05:36:21.293Z,90.10
2019-03-25T05:38:59.556Z,89.60
2019-03-25T05:41:38.903Z,89.50
2019-03-25T05:44:19.486Z,88.80
2019-03-25T05:47:00.269Z,89.00
2019-03-25T05:49:41.586Z,87.40
2019-03-25T05:52:23.000Z,87.80
2019-03-25T05:55:00.567Z,86.30
2019-03-25T05:57:39.141Z,86.30
2019-03-25T06:00:16.886Z,85.70
2019-03-25T06:03:01.470Z,84.60
2019-03-25T06:05:40.522Z,83.80
2019-03-25T06:08:23.203Z,82.80
2019-03-25T06:11:00.983Z,79.20
2019-03-25T06:13:38.235Z,78.40
2019-03-25T06:16:21.162Z,77.40
2019-03-25T06:18:58.549Z,75.30
2019-03-25T06:21:34.874Z,74.40
2019-03-25T06:24:12.915Z,73.20
2019-03-25T06:26:52.171Z,72.90
2019-03-25T06:29:32.180Z,70.60
2019-03-25T06:32:13.694Z,69.00
2019-03-25T06:34:50.735Z,69.20
2019-03-25T06:37:30.544Z,68.00
2019-03-25T06:40:09.307Z,67.10
2019-03-25T06:42:49.454Z,65.90
2019-03-25T06:45:28.598Z,63.60
2019-03-25T06:48:03.992Z,62.70
2019-03-25T06:50:40.011Z,61.30
2019-03-25T06:53:18.799Z,59.80
2019-03-25T06:55:58.922Z,62.00
2019-03-25T06:58:39.588Z,60.00
2019-03-25T07:01:15.484Z,58.80
2019-03-25T07:03:54.613Z,60.00
2019-03-25T07:06:35.036Z,61.60
2019-03-25T07:09:11.687Z,60.00
2019-03-25T07:11:53.234Z,59.10
2019-03-25T07:14:36.931Z,57.90
2019-03-25T07:17:16.389Z,58.80
2019-03-25T07:19:54.728Z,58.20
2019-03-25T07:22:33.275Z,57.60
2019-03-25T07:25:09.743Z,57.00
2019-03-25T07:27:47.900Z,56.50
2019-03-25T07:30:26.411Z,55.50
2019-03-25T07:33:04.471Z,56.00
2019-03-25T07:35:42.073Z,56.30
2019-03-25T07:38:21.428Z,56.40
2019-03-25T07:41:00.828Z,54.40
2019-03-25T07:43:44.086Z,53.00
2019-03-25T07:46:22.426Z,53.00
2019-03-25T07:48:57.979Z,53.90
2019-03-25T07:51:34.839Z,52.70
2019-03-25T07:54:11.772Z,52.40
2019-03-25T07:56:50.320Z,54.50
2019-03-25T07:59:36.611Z,51.40
2019-03-25T08:02:11.092Z,52.20
2019-03-25T08:04:49.695Z,51.60
2019-03-25T08:07:28.235Z,51.20
2019-03-25T08:10:04.749Z,51.50
2019-03-25T08:12:42.284Z,51.10
2019-03-25T08:15:33.944Z,50.60
2019-03-25T08:18:10.776Z,50.20
2019-03-25T08:20:48.244Z,51.20
2019-03-25T08:23:26.944Z,51.20
2019-03-25T08:26:06.234Z,51.00
2019-03-25T08:28:43.925Z,50.00
2019-03-25T08:31:25.109Z,49.70
2019-03-25T08:34:03.184Z,50.90
2019-03-25T08:36:45.115Z,50.30
2019-03-25T08:39:25.709Z,50.00
2019-03-25T08:42:07.786Z,50.30
2019-03-25T08:44:45.173Z,49.80
2019-03-25T08:47:26.562Z,48.50
2019-03-25T08:50:04.314Z,48.60
2019-03-25T08:52:41.268Z,48.30
2019-03-25T08:55:19.383Z,47.80
2019-03-25T08:58:11.232Z,48.70
2019-03-25T09:00:41.538Z,48.40
2019-03-25T09:03:18.268Z,48.10
2019-03-25T09:05:59.599Z,48.30
2019-03-25T09:08:37.134Z,48.20
2019-03-25T09:11:15.852Z,48.20
2019-03-25T09:13:54.984Z,46.80
2019-03-25T09:16:34.631Z,46.80
2019-03-25T09:19:13.397Z,47.60
2019-03-25T09:21:48.697Z,47.00
2019-03-25T09:24:27.533Z,45.50
2019-03-25T09:27:03.252Z,46.80
2019-03-25T09:29:41.989Z,46.90
2019-03-25T09:32:17.744Z,46.80
2019-03-25T09:34:56.908Z,45.50
2019-03-25T09:37:34.542Z,45.10
2019-03-25T09:40:12.730Z,46.20
2019-03-25T09:42:52.667Z,44.40
2019-03-25T09:45:31.136Z,44.20
2019-03-25T09:48:10.259Z,44.80
2019-03-25T09:50:48.104Z,45.80
2019-03-25T09:53:21.931Z,43.40
2019-03-25T09:55:58.383Z,44.60
2019-03-25T09:58:39.209Z,44.00
2019-03-25T10:01:18.818Z,45.10
2019-03-25T10:03:55.691Z,44.60
2019-03-25T10:06:31.704Z,44.50
2019-03-25T10:09:15.859Z,44.10
2019-03-25T10:11:55.285Z,42.70
2019-03-25T10:14:34.631Z,42.40
2019-03-25T10:17:11.997Z,43.20
2019-03-25T10:19:48.576Z,42.60
2019-03-25T10:22:30.405Z,42.40
2019-03-25T10:25:06.761Z,41.20
2019-03-25T10:27:45.423Z,42.00
2019-03-25T10:30:24.969Z,41.70
2019-03-25T10:33:02.734Z,41.50
2019-03-25T10:35:41.659Z,42.20
2019-03-25T10:38:22.675Z,41.30
2019-03-25T10:41:01.698Z,40.40
2019-03-25T10:43:40.943Z,41.10
2019-03-25T10:46:19.720Z,40.80
2019-03-25T10:48:57.087Z,40.40
2019-03-25T10:51:33.410Z,40.20
2019-03-25T10:54:10.587Z,40.60
2019-03-25T10:56:49.270Z,39.80
2019-03-25T10:59:24.530Z,39.30
2019-03-25T11:02:00.696Z,39.20
2019-03-25T11:04:38.167Z,38.70
2019-03-25T11:07:16.254Z,38.50
2019-03-25T11:09:52.787Z,38.20
2019-03-25T11:12:31.890Z,36.80
2019-03-25T11:15:13.775Z,35.40
2019-03-25T11:17:55.538Z,37.80
2019-03-25T11:20:33.562Z,36.40
2019-03-25T11:23:15.296Z,36.30
2019-03-25T11:25:55.665Z,36.40
2019-03-25T11:28:32.659Z,36.70
2019-03-25T11:31:10.256Z,35.80
2019-03-25T11:33:48.081Z,35.30
2019-03-25T11:36:28.077Z,34.90
2019-03-25T11:39:08.495Z,32.10
2019-03-25T11:41:45.689Z,34.00
2019-03-25T11:44:32.647Z,31.20
2019-03-25T11:47:09.018Z,32.40
2019-03-25T11:49:51.286Z,34.60
2019-03-25T11:52:30.335Z,36.40
2019-03-25T11:55:08.780Z,36.00
2019-03-25T11:57:48.112Z,35.00
2019-03-25T12:00:26.483Z,35.10
2019-03-25T12:03:04.100Z,35.20
2019-03-25T12:05:40.829Z,35.40
2019-03-25T12:08:19.355Z,36.00
2019-03-25T12:10:55.456Z,36.70
2019-03-25T12:13:32.237Z,36.40
2019-03-25T12:16:08.591Z,36.30
2019-03-25T12:18:48.136Z,35.10
2019-03-25T12:21:26.317Z,36.10
2019-03-25T12:24:05.742Z,36.00
2019-03-25T12:26:45.310Z,34.60
2019-03-25T12:29:29.709Z,34.30
2019-03-25T12:32:01.267Z,34.50
2019-03-25T12:34:46.688Z,34.00
2019-03-25T12:37:24.429Z,34.80
2019-03-25T12:40:04.622Z,34.70
2019-03-25T12:42:40.525Z,33.40
2019-03-25T12:45:17.853Z,33.90
2019-03-25T12:47:57.301Z,33.10
2019-03-25T12:50:36.892Z,32.40
2019-03-25T12:53:13.362Z,33.20
2019-03-25T12:55:53.547Z,32.70
2019-03-25T12:58:31.785Z,32.90
2019-03-25T13:01:10.165Z,34.00
2019-03-25T13:03:50.813Z,33.80
2019-03-25T13:06:28.421Z,34.60
2019-03-25T13:09:05.314Z,31.60
2019-03-25T13:11:44.965Z,31.10
2019-03-25T13:14:22.234Z,31.50
2019-03-25T13:17:01.679Z,30.90
2019-03-25T13:19:41.702Z,30.80
2019-03-25T13:22:24.027Z,31.50
2019-03-25T13:25:04.755Z,33.00
2019-03-25T13:27:42.903Z,30.20
2019-03-25T13:30:19.642Z,31.00
2019-03-25T13:32:58.042Z,30.50
2019-03-25T13:35:39.517Z,30.20
2019-03-25T13:38:24.692Z,32.20
2019-03-25T13:41:01.442Z,31.60
2019-03-25T13:43:43.967Z,30.10
2019-03-25T13:46:19.208Z,30.30
2019-03-25T13:48:55.252Z,29.60
2019-03-25T13:51:32.492Z,29.30
2019-03-25T13:54:14.478Z,28.30
2019-03-25T13:56:53.962Z,28.10
2019-03-25T13:59:35.329Z,29.00
2019-03-25T14:02:17.183Z,28.10
2019-03-25T14:04:54.451Z,28.00
2019-03-25T14:07:29.910Z,27.50
2019-03-25T14:10:09.771Z,27.70
2019-03-25T14:12:48.973Z,27.50
2019-03-25T14:15:27.748Z,27.90
2019-03-25T14:18:08.259Z,28.40
2019-03-25T14:20:45.564Z,27.30
2019-03-25T14:23:21.779Z,28.30
2019-03-25T14:26:02.892Z,27.50
2019-03-25T14:28:52.777Z,26.60
2019-03-25T14:31:26.948Z,26.80
2019-03-25T14:34:03.100Z,26.60
2019-03-25T14:36:37.280Z,26.40
2019-03-25T14:39:11.245Z,26.60
2019-03-25T14:41:45.424Z,26.60
2019-03-25T14:44:19.284Z,26.50
2019-03-25T14:46:53.280Z,26.80
2019-03-25T14:49:27.552Z,26.90
2019-03-25T14:52:01.767Z,27.10
2019-03-25T14:54:36.157Z,27.90
2019-03-25T14:57:10.514Z,27.40
2019-03-25T14:59:44.512Z,27.60
2019-03-25T15:02:20.595Z,27.60
2019-03-25T15:04:54.863Z,27.40
2019-03-25T15:07:29.381Z,27.30
2019-03-25T15:10:03.971Z,27.60
2019-03-25T15:12:38.122Z,28.00
2019-03-25T15:15:13.119Z,27.80
2019-03-25T15:17:47.437Z,28.10
2019-03-25T15:20:21.981Z,27.70
2019-03-25T15:22:56.833Z,28.20
2019-03-25T15:25:30.817Z,28.40
2019-03-25T15:28:04.894Z,28.40
2019-03-25T15:30:39.216Z,28.20
2019-03-25T15:33:15.035Z,27.90
2019-03-25T15:35:49.371Z,28.30
2019-03-25T15:38:25.459Z,27.60
2019-03-25T15:40:59.851Z,28.20
2019-03-25T15:43:33.983Z,28.70
2019-03-25T15:46:08.296Z,28.00
2019-03-25T15:48:42.419Z,28.30
2019-03-25T15:51:16.376Z,28.80
2019-03-25T15:53:50.817Z,29.10
2019-03-25T15:56:25.159Z,29.30
2019-03-25T15:58:59.771Z,29.80
2019-03-25T16:01:34.467Z,29.90
2019-03-25T16:04:08.746Z,30.40
2019-03-25T16:06:43.052Z,30.90
2019-03-25T16:09:16.914Z,31.50
2019-03-25T16:11:51.124Z,31.70
2019-03-25T16:14:25.739Z,32.10
2019-03-25T16:16:59.822Z,32.10
2019-03-25T16:19:34.514Z,32.10
2019-03-25T16:22:10.015Z,32.20
2019-03-25T16:24:44.322Z,32.40
2019-03-25T16:27:18.394Z,32.50
2019-03-25T16:29:52.489Z,32.70
2019-03-25T16:32:26.395Z,32.80
2019-03-25T16:35:00.636Z,33.40
2019-03-25T16:37:34.844Z,33.40
2019-03-25T16:40:09.570Z,34.10
2019-03-25T16:42:43.511Z,34.30
2019-03-25T16:45:17.635Z,34.20
2019-03-25T16:47:51.836Z,35.10
2019-03-25T16:50:26.139Z,35.10
2019-03-25T16:53:00.460Z,36.10
2019-03-25T16:55:35.011Z,36.90
2019-03-25T16:58:09.114Z,37.60
2019-03-25T17:00:42.997Z,38.20
2019-03-25T17:03:17.105Z,38.30
2019-03-25T17:05:51.406Z,38.20
2019-03-25T17:08:25.824Z,38.70
2019-03-25T17:10:59.653Z,38.80
2019-03-25T17:13:33.700Z,39.00
2019-03-25T17:16:08.215Z,40.00
2019-03-25T17:18:42.321Z,39.50
2019-03-25T17:21:16.306Z,40.50
2019-03-25T17:23:50.680Z,40.40
2019-03-25T17:26:25.131Z,40.70
2019-03-25T17:28:59.115Z,41.50
2019-03-25T17:31:33.593Z,41.80
2019-03-25T17:34:07.992Z,42.70
2019-03-25T17:36:41.561Z,43.10
2019-03-25T17:39:15.999Z,42.40
2019-03-25T17:41:50.409Z,42.70
2019-03-25T17:44:24.210Z,43.30
2019-03-25T17:46:58.372Z,42.90
2019-03-25T17:49:33.979Z,43.00
2019-03-25T17:52:07.848Z,43.90
2019-03-25T17:54:41.684Z,43.90
2019-03-25T17:57:15.466Z,43.50
2019-03-25T17:59:49.243Z,43.80
2019-03-25T18:02:23.493Z,43.70
2019-03-25T18:04:57.970Z,44.50
2019-03-25T18:07:32.020Z,44.30
2019-03-25T18:10:06.382Z,44.50
2019-03-25T18:12:40.555Z,44.30
2019-03-25T18:15:15.383Z,44.70
2019-03-25T18:17:49.408Z,44.60
2019-03-25T18:20:23.173Z,44.80
2019-03-25T18:22:57.279Z,45.10
2019-03-25T18:25:31.225Z,45.30
2019-03-25T18:28:05.184Z,45.40
2019-03-25T18:30:39.103Z,45.60
2019-03-25T18:33:13.452Z,45.80
2019-03-25T18:35:47.298Z,46.50
2019-03-25T18:38:21.457Z,47.20
2019-03-25T18:40:55.460Z,47.40
2019-03-25T18:43:29.761Z,47.50
2019-03-25T18:46:04.013Z,47.10
2019-03-25T18:48:38.036Z,47.00
2019-03-25T18:51:12.090Z,47.70
2019-03-25T18:53:46.215Z,47.90
2019-03-25T18:56:20.942Z,47.60
2019-03-25T18:58:54.880Z,47.70
2019-03-25T19:01:28.768Z,48.10
2019-03-25T19:04:02.443Z,47.90
2019-03-25T19:06:37.327Z,48.90
2019-03-25T19:09:11.969Z,49.00
2019-03-25T19:11:46.244Z,49.40
2019-03-25T19:14:20.380Z,49.10
2019-03-25T19:16:54.438Z,49.30
2019-03-25T19:19:28.880Z,49.40
2019-03-25T19:22:05.256Z,49.20
2019-03-25T19:24:38.910Z,49.40
2019-03-25T19:27:12.989Z,49.60
2019-03-25T19:29:46.782Z,50.00
2019-03-25T19:32:20.754Z,50.90
2019-03-25T19:34:54.766Z,50.80
2019-03-25T19:37:29.009Z,50.90
2019-03-25T19:40:03.442Z,51.40
2019-03-25T19:42:38.378Z,51.50
2019-03-25T19:45:13.137Z,52.10
2019-03-25T19:47:47.215Z,52.10
2019-03-25T19:50:22.101Z,52.50
2019-03-25T19:52:56.265Z,52.60
2019-03-25T19:55:30.547Z,53.30
2019-03-25T19:58:04.266Z,53.40
2019-03-25T20:00:40.658Z,53.70
2019-03-25T20:03:14.853Z,53.90
2019-03-25T20:05:48.873Z,54.40
2019-03-25T20:08:23.293Z,54.70
2019-03-25T20:10:57.134Z,54.90
2019-03-25T20:13:31.091Z,55.20
2019-03-25T20:16:07.210Z,55.50
2019-03-25T20:18:41.400Z,56.10
2019-03-25T20:21:14.964Z,56.80
2019-03-25T20:23:50.505Z,56.80
2019-03-25T20:26:24.608Z,57.00
2019-03-25T20:28:59.009Z,57.30
2019-03-25T20:31:33.121Z,57.90
2019-03-25T20:34:11.262Z,58.20
2019-03-25T20:36:42.681Z,58.30
2019-03-25T20:39:16.865Z,58.60
2019-03-25T20:41:50.647Z,59.00
2019-03-25T20:44:24.819Z,59.20
2019-03-25T20:46:58.900Z,59.60
2019-03-25T20:49:33.082Z,59.70
2019-03-25T20:52:07.035Z,59.60
2019-03-25T20:54:41.573Z,59.60
2019-03-25T20:57:15.711Z,59.80
2019-03-25T20:59:49.547Z,60.60
2019-03-25T21:02:23.673Z,60.70
2019-03-25T21:04:57.583Z,61.60
2019-03-25T21:07:31.648Z,61.60
2019-03-25T21:10:06.683Z,61.70
2019-03-25T21:12:40.912Z,62.00
2019-03-25T21:15:15.257Z,62.10
2019-03-25T21:17:49.299Z,63.20
2019-03-25T21:20:23.348Z,63.40
2019-03-25T21:22:57.495Z,63.00
2019-03-25T21:25:31.445Z,64.60
2019-03-25T21:28:05.857Z,65.50
2019-03-25T21:30:47.845Z,65.80
2019-03-25T21:33:17.621Z,66.00
2019-03-25T21:35:53.060Z,66.10
2019-03-25T21:38:27.173Z,66.50
2019-03-25T21:41:01.203Z,67.30
2019-03-25T21:43:35.257Z,69.30
2019-03-25T21:46:09.508Z,69.20
2019-03-25T21:48:43.338Z,70.00
2019-03-25T21:51:18.089Z,71.10
2019-03-25T21:53:53.300Z,70.40
2019-03-25T21:56:27.463Z,69.90
2019-03-25T21:59:01.492Z,70.00
2019-03-25T22:01:35.519Z,71.10
2019-03-25T22:04:09.652Z,72.70
2019-03-25T22:06:43.593Z,72.60
2019-03-25T22:09:17.941Z,73.40
2019-03-25T22:11:51.738Z,73.50
2019-03-25T22:14:25.705Z,74.70
2019-03-25T22:16:59.492Z,75.60
2019-03-25T22:19:33.379Z,76.30
2019-03-25T22:22:07.678Z,76.10
2019-03-25T22:24:41.914Z,76.00
2019-03-25T22:27:15.852Z,76.50
2019-03-25T22:29:49.582Z,76.70
2019-03-25T22:32:23.363Z,77.90
2019-03-25T22:34:58.530Z,78.90
2019-03-25T22:37:32.239Z,79.70
2019-03-25T22:40:06.698Z,80.90
2019-03-25T22:42:40.618Z,79.90
2019-03-25T22:45:14.858Z,79.60
2019-03-25T22:47:48.684Z,79.10
2019-03-25T22:50:33.719Z,79.80
2019-03-25T22:53:07.857Z,80.10
2019-03-25T22:55:41.646Z,80.70
2019-03-25T22:58:25.854Z,81.60
2019-03-25T23:01:01.978Z,81.60
2019-03-25T23:03:39.422Z,81.80
2019-03-25T23:06:11.693Z,81.70
2019-03-25T23:08:45.476Z,83.60
2019-03-25T23:11:19.218Z,83.00
2019-03-25T23:13:52.742Z,82.30
2019-03-25T23:16:26.497Z,82.90
2019-03-25T23:19:00.662Z,82.30
2019-03-25T23:21:36.464Z,82.60
2019-03-25T23:24:10.248Z,84.30
2019-03-25T23:26:44.366Z,84.40
2019-03-25T23:29:18.212Z,84.20
2019-03-25T23:31:52.163Z,84.00
2019-03-25T23:34:25.954Z,84.40
2019-03-25T23:36:59.860Z,84.10
2019-03-25T23:39:33.965Z,84.80
2019-03-25T23:42:07.890Z,85.10
2019-03-25T23:44:41.847Z,85.10
2019-03-25T23:47:15.674Z,85.70
2019-03-25T23:49:49.588Z,86.50
2019-03-25T23:52:23.718Z,86.30
2019-03-25T23:54:57.492Z,87.00
2019-03-25T23:57:32.421Z,86.70
